sensor_id;sensor_type;location;lat;lon;timestamp;pressure;altitude;pressure_sealevel;temperature;humidity
79067;BME280;68470;50.224;14.348;2023-07-09T00:01:13;99811.28;;;15.67;72.85
79067;BME280;68470;50.224;14.348;2023-07-09T00:03:39;99816.38;;;15.50;73.48
79067;BME280;68470;50.224;14.348;2023-07-09T00:06:07;99812.88;;;15.34;73.97
79067;BME280;68470;50.224;14.348;2023-07-09T00:08:33;99820.47;;;15.08;75.12
79067;BME280;68470;50.224;14.348;2023-07-09T00:10:59;99815.56;;;15.44;73.72
79067;BME280;68470;50.224;14.348;2023-07-09T00:13:26;99821.66;;;15.46;73.16
79067;BME280;68470;50.224;14.348;2023-07-09T00:16:00;99811.59;;;15.11;74.31
79067;BME280;68470;50.224;14.348;2023-07-09T00:18:26;99825.78;;;15.54;73.24
79067;BME280;68470;50.224;14.348;2023-07-09T00:20:52;99831.13;;;15.40;73.86
79067;BME280;68470;50.224;14.348;2023-07-09T00:23:18;99827.50;;;15.40;73.54
79067;BME280;68470;50.224;14.348;2023-07-09T00:25:45;99826.56;;;15.10;75.37
79067;BME280;68470;50.224;14.348;2023-07-09T00:28:15;99823.28;;;15.03;75.16
79067;BME280;68470;50.224;14.348;2023-07-09T00:30:40;99824.91;;;15.14;75.05
79067;BME280;68470;50.224;14.348;2023-07-09T00:33:11;99822.69;;;15.06;75.10
79067;BME280;68470;50.224;14.348;2023-07-09T00:35:39;99818.81;;;15.07;75.34
79067;BME280;68470;50.224;14.348;2023-07-09T00:38:10;99821.03;;;15.05;75.51
79067;BME280;68470;50.224;14.348;2023-07-09T00:40:38;99835.47;;;15.02;76.30
79067;BME280;68470;50.224;14.348;2023-07-09T00:43:10;99822.19;;;14.99;75.99
79067;BME280;68470;50.224;14.348;2023-07-09T00:45:40;99828.50;;;15.10;75.46
79067;BME280;68470;50.224;14.348;2023-07-09T00:48:06;99816.66;;;14.99;75.53
79067;BME280;68470;50.224;14.348;2023-07-09T00:50:46;99812.22;;;14.93;76.17
79067;BME280;68470;50.224;14.348;2023-07-09T00:53:31;99814.09;;;15.13;75.45
79067;BME280;68470;50.224;14.348;2023-07-09T00:56:24;99809.97;;;15.05;75.59
79067;BME280;68470;50.224;14.348;2023-07-09T00:58:52;99806.91;;;15.07;75.63
79067;BME280;68470;50.224;14.348;2023-07-09T01:01:20;99819.34;;;15.14;74.88
79067;BME280;68470;50.224;14.348;2023-07-09T01:03:49;99820.88;;;14.81;76.09
79067;BME280;68470;50.224;14.348;2023-07-09T01:06:39;99816.53;;;14.34;78.74
79067;BME280;68470;50.224;14.348;2023-07-09T01:09:07;99822.81;;;14.81;76.29
79067;BME280;68470;50.224;14.348;2023-07-09T01:11:34;99825.84;;;14.84;75.80
79067;BME280;68470;50.224;14.348;2023-07-09T01:14:01;99823.44;;;14.62;76.94
79067;BME280;68470;50.224;14.348;2023-07-09T01:16:31;99822.78;;;14.91;75.55
79067;BME280;68470;50.224;14.348;2023-07-09T01:18:58;99822.00;;;14.80;75.09
79067;BME280;68470;50.224;14.348;2023-07-09T01:21:26;99830.00;;;14.87;76.45
79067;BME280;68470;50.224;14.348;2023-07-09T01:23:52;99819.56;;;14.53;78.65
79067;BME280;68470;50.224;14.348;2023-07-09T01:26:24;99838.41;;;14.51;77.62
79067;BME280;68470;50.224;14.348;2023-07-09T01:28:54;99815.69;;;14.39;77.91
79067;BME280;68470;50.224;14.348;2023-07-09T01:31:20;99822.31;;;14.43;77.94
79067;BME280;68470;50.224;14.348;2023-07-09T01:33:46;99826.22;;;14.27;78.93
79067;BME280;68470;50.224;14.348;2023-07-09T01:36:17;99828.44;;;14.25;80.57
79067;BME280;68470;50.224;14.348;2023-07-09T01:38:43;99831.50;;;14.33;80.53
79067;BME280;68470;50.224;14.348;2023-07-09T01:41:10;99822.38;;;14.07;81.10
79067;BME280;68470;50.224;14.348;2023-07-09T01:43:38;99835.13;;;13.98;80.99
79067;BME280;68470;50.224;14.348;2023-07-09T01:46:08;99831.81;;;13.96;81.43
79067;BME280;68470;50.224;14.348;2023-07-09T01:48:34;99830.41;;;14.09;80.91
79067;BME280;68470;50.224;14.348;2023-07-09T01:51:11;99831.78;;;13.91;80.58
79067;BME280;68470;50.224;14.348;2023-07-09T01:53:39;99826.81;;;14.03;80.72
79067;BME280;68470;50.224;14.348;2023-07-09T01:56:06;99832.63;;;14.17;79.69
79067;BME280;68470;50.224;14.348;2023-07-09T01:58:34;99831.22;;;14.20;78.72
79067;BME280;68470;50.224;14.348;2023-07-09T02:01:00;99838.41;;;14.26;78.38
79067;BME280;68470;50.224;14.348;2023-07-09T02:03:25;99834.00;;;14.30;78.18
79067;BME280;68470;50.224;14.348;2023-07-09T02:05:55;99824.28;;;14.27;78.14
79067;BME280;68470;50.224;14.348;2023-07-09T02:08:23;99830.97;;;14.16;78.40
79067;BME280;68470;50.224;14.348;2023-07-09T02:10:49;99833.16;;;14.34;77.90
79067;BME280;68470;50.224;14.348;2023-07-09T02:13:15;99829.03;;;14.11;78.54
79067;BME280;68470;50.224;14.348;2023-07-09T02:15:42;99832.63;;;14.12;78.66
79067;BME280;68470;50.224;14.348;2023-07-09T02:18:10;99833.16;;;14.09;78.86
79067;BME280;68470;50.224;14.348;2023-07-09T02:20:35;99830.66;;;14.23;78.61
79067;BME280;68470;50.224;14.348;2023-07-09T02:23:02;99831.25;;;13.99;79.33
79067;BME280;68470;50.224;14.348;2023-07-09T02:25:28;99836.22;;;14.07;78.98
79067;BME280;68470;50.224;14.348;2023-07-09T02:27:54;99839.28;;;14.01;79.60
79067;BME280;68470;50.224;14.348;2023-07-09T02:30:20;99841.22;;;13.95;79.77
79067;BME280;68470;50.224;14.348;2023-07-09T02:32:45;99845.91;;;13.74;80.99
79067;BME280;68470;50.224;14.348;2023-07-09T02:35:12;99852.84;;;13.82;81.41
79067;BME280;68470;50.224;14.348;2023-07-09T02:37:38;99844.50;;;13.67;81.71
79067;BME280;68470;50.224;14.348;2023-07-09T02:40:04;99854.44;;;13.58;81.82
79067;BME280;68470;50.224;14.348;2023-07-09T02:42:30;99852.53;;;13.63;82.31
79067;BME280;68470;50.224;14.348;2023-07-09T02:44:56;99858.38;;;13.82;81.63
79067;BME280;68470;50.224;14.348;2023-07-09T02:47:22;99855.88;;;13.96;80.89
79067;BME280;68470;50.224;14.348;2023-07-09T02:49:48;99852.81;;;13.92;80.71
79067;BME280;68470;50.224;14.348;2023-07-09T02:52:14;99854.22;;;13.79;80.87
79067;BME280;68470;50.224;14.348;2023-07-09T02:54:40;99857.81;;;13.85;80.54
79067;BME280;68470;50.224;14.348;2023-07-09T02:57:05;99856.13;;;13.69;81.94
79067;BME280;68470;50.224;14.348;2023-07-09T02:59:32;99857.75;;;13.44;83.00
79067;BME280;68470;50.224;14.348;2023-07-09T03:01:59;99853.31;;;13.38;83.78
79067;BME280;68470;50.224;14.348;2023-07-09T03:04:25;99851.09;;;13.30;83.49
79067;BME280;68470;50.224;14.348;2023-07-09T03:06:51;99851.28;;;13.13;84.10
79067;BME280;68470;50.224;14.348;2023-07-09T03:09:19;99848.09;;;13.47;82.56
79067;BME280;68470;50.224;14.348;2023-07-09T03:11:44;99853.34;;;13.48;82.53
79067;BME280;68470;50.224;14.348;2023-07-09T03:14:10;99843.97;;;13.65;81.52
79067;BME280;68470;50.224;14.348;2023-07-09T03:16:36;99847.28;;;13.67;82.26
79067;BME280;68470;50.224;14.348;2023-07-09T03:19:02;99866.06;;;13.44;83.15
79067;BME280;68470;50.224;14.348;2023-07-09T03:21:30;99861.50;;;13.13;84.48
79067;BME280;68470;50.224;14.348;2023-07-09T03:23:57;99873.06;;;13.10;84.92
79067;BME280;68470;50.224;14.348;2023-07-09T03:26:22;99872.56;;;13.13;84.64
79067;BME280;68470;50.224;14.348;2023-07-09T03:28:48;99880.44;;;13.57;82.85
79067;BME280;68470;50.224;14.348;2023-07-09T03:31:14;99873.28;;;13.61;82.37
79067;BME280;68470;50.224;14.348;2023-07-09T03:33:40;99874.94;;;13.62;82.44
79067;BME280;68470;50.224;14.348;2023-07-09T03:36:05;99873.03;;;13.77;81.57
79067;BME280;68470;50.224;14.348;2023-07-09T03:38:32;99879.41;;;13.98;80.79
79067;BME280;68470;50.224;14.348;2023-07-09T03:40:58;99873.84;;;14.08;80.26
79067;BME280;68470;50.224;14.348;2023-07-09T03:43:24;99877.72;;;13.87;82.00
79067;BME280;68470;50.224;14.348;2023-07-09T03:45:50;99877.72;;;13.82;81.69
79067;BME280;68470;50.224;14.348;2023-07-09T03:48:18;99877.47;;;13.99;80.41
79067;BME280;68470;50.224;14.348;2023-07-09T03:50:46;99881.91;;;14.20;79.68
79067;BME280;68470;50.224;14.348;2023-07-09T03:53:13;99879.13;;;14.25;79.15
79067;BME280;68470;50.224;14.348;2023-07-09T03:55:39;99884.63;;;14.71;77.71
79067;BME280;68470;50.224;14.348;2023-07-09T03:58:05;99886.66;;;15.25;75.83
79067;BME280;68470;50.224;14.348;2023-07-09T04:00:31;99890.06;;;15.71;73.36
79067;BME280;68470;50.224;14.348;2023-07-09T04:02:57;99889.09;;;16.25;71.40
79067;BME280;68470;50.224;14.348;2023-07-09T04:05:26;99887.34;;;16.68;69.23
79067;BME280;68470;50.224;14.348;2023-07-09T04:07:53;99886.06;;;17.08;67.86
79067;BME280;68470;50.224;14.348;2023-07-09T04:10:20;99894.59;;;17.17;67.45
79067;BME280;68470;50.224;14.348;2023-07-09T04:12:46;99888.03;;;17.51;66.16
79067;BME280;68470;50.224;14.348;2023-07-09T04:15:12;99893.56;;;17.74;65.45
79067;BME280;68470;50.224;14.348;2023-07-09T04:17:39;99892.44;;;17.94;64.68
79067;BME280;68470;50.224;14.348;2023-07-09T04:20:06;99883.00;;;18.09;64.43
79067;BME280;68470;50.224;14.348;2023-07-09T04:22:33;99879.56;;;18.17;63.79
79067;BME280;68470;50.224;14.348;2023-07-09T04:25:00;99887.66;;;18.32;63.79
79067;BME280;68470;50.224;14.348;2023-07-09T04:27:26;99890.78;;;18.45;63.57
79067;BME280;68470;50.224;14.348;2023-07-09T04:29:53;99892.53;;;18.73;62.20
79067;BME280;68470;50.224;14.348;2023-07-09T04:32:19;99884.78;;;18.98;61.50
79067;BME280;68470;50.224;14.348;2023-07-09T04:34:46;99897.75;;;19.21;61.17
79067;BME280;68470;50.224;14.348;2023-07-09T04:37:15;99896.09;;;19.20;61.13
79067;BME280;68470;50.224;14.348;2023-07-09T04:39:44;99903.53;;;19.24;60.93
79067;BME280;68470;50.224;14.348;2023-07-09T04:42:14;99896.16;;;19.42;60.61
79067;BME280;68470;50.224;14.348;2023-07-09T04:44:41;99898.53;;;19.63;59.85
79067;BME280;68470;50.224;14.348;2023-07-09T04:47:07;99891.69;;;19.82;58.66
79067;BME280;68470;50.224;14.348;2023-07-09T04:49:33;99900.69;;;20.16;58.06
79067;BME280;68470;50.224;14.348;2023-07-09T04:51:59;99905.97;;;20.39;57.16
79067;BME280;68470;50.224;14.348;2023-07-09T04:54:26;99903.22;;;20.03;57.80
79067;BME280;68470;50.224;14.348;2023-07-09T04:56:53;99904.47;;;19.97;58.10
79067;BME280;68470;50.224;14.348;2023-07-09T04:59:19;99909.31;;;20.28;57.08
79067;BME280;68470;50.224;14.348;2023-07-09T05:01:46;99903.34;;;20.65;55.40
79067;BME280;68470;50.224;14.348;2023-07-09T05:04:12;99908.06;;;20.56;55.74
79067;BME280;68470;50.224;14.348;2023-07-09T05:06:38;99908.34;;;20.77;54.92
79067;BME280;68470;50.224;14.348;2023-07-09T05:09:04;99917.91;;;21.07;54.23
79067;BME280;68470;50.224;14.348;2023-07-09T05:11:33;99910.72;;;21.72;52.42
79067;BME280;68470;50.224;14.348;2023-07-09T05:13:59;99918.81;;;21.82;51.64
79067;BME280;68470;50.224;14.348;2023-07-09T05:16:25;99908.00;;;22.24;50.89
79067;BME280;68470;50.224;14.348;2023-07-09T05:18:51;99915.22;;;22.33;50.82
79067;BME280;68470;50.224;14.348;2023-07-09T05:21:17;99916.81;;;22.77;50.20
79067;BME280;68470;50.224;14.348;2023-07-09T05:23:42;99910.69;;;22.93;48.84
79067;BME280;68470;50.224;14.348;2023-07-09T05:26:08;99906.72;;;23.02;48.43
79067;BME280;68470;50.224;14.348;2023-07-09T05:28:34;99901.47;;;22.92;48.45
79067;BME280;68470;50.224;14.348;2023-07-09T05:31:01;99908.56;;;23.28;47.48
79067;BME280;68470;50.224;14.348;2023-07-09T05:33:26;99916.31;;;24.19;43.85
79067;BME280;68470;50.224;14.348;2023-07-09T05:35:52;99924.53;;;24.45;42.15
79067;BME280;68470;50.224;14.348;2023-07-09T05:38:18;99919.47;;;24.39;41.91
79067;BME280;68470;50.224;14.348;2023-07-09T05:40:44;99922.13;;;24.68;40.02
79067;BME280;68470;50.224;14.348;2023-07-09T05:43:10;99925.63;;;24.86;42.15
79067;BME280;68470;50.224;14.348;2023-07-09T05:45:40;99916.50;;;24.56;44.64
79067;BME280;68470;50.224;14.348;2023-07-09T05:48:05;99916.31;;;24.40;44.88
79067;BME280;68470;50.224;14.348;2023-07-09T05:50:34;99911.44;;;24.95;42.95
79067;BME280;68470;50.224;14.348;2023-07-09T05:53:00;99913.69;;;25.01;42.07
79067;BME280;68470;50.224;14.348;2023-07-09T05:55:26;99915.16;;;25.44;40.35
79067;BME280;68470;50.224;14.348;2023-07-09T05:57:53;99924.69;;;25.39;40.15
79067;BME280;68470;50.224;14.348;2023-07-09T06:00:19;99920.91;;;25.23;42.06
79067;BME280;68470;50.224;14.348;2023-07-09T06:02:45;99913.97;;;25.33;41.81
79067;BME280;68470;50.224;14.348;2023-07-09T06:05:11;99908.50;;;26.13;39.79
79067;BME280;68470;50.224;14.348;2023-07-09T06:07:38;99911.22;;;26.78;38.47
79067;BME280;68470;50.224;14.348;2023-07-09T06:10:05;99915.94;;;26.74;38.72
79067;BME280;68470;50.224;14.348;2023-07-09T06:12:31;99911.25;;;26.93;37.80
79067;BME280;68470;50.224;14.348;2023-07-09T06:14:57;99916.56;;;27.58;35.02
79067;BME280;68470;50.224;14.348;2023-07-09T06:17:22;99912.28;;;27.80;34.23
79067;BME280;68470;50.224;14.348;2023-07-09T06:19:48;99906.00;;;27.55;35.96
79067;BME280;68470;50.224;14.348;2023-07-09T06:22:14;99908.41;;;26.78;37.64
79067;BME280;68470;50.224;14.348;2023-07-09T06:24:40;99913.91;;;27.02;38.75
79067;BME280;68470;50.224;14.348;2023-07-09T06:27:06;99915.03;;;27.29;37.49
79067;BME280;68470;50.224;14.348;2023-07-09T06:29:32;99915.75;;;27.73;36.78
79067;BME280;68470;50.224;14.348;2023-07-09T06:31:57;99919.16;;;28.33;35.29
79067;BME280;68470;50.224;14.348;2023-07-09T06:34:23;99918.53;;;28.24;34.31
79067;BME280;68470;50.224;14.348;2023-07-09T06:36:49;99919.44;;;28.28;33.98
79067;BME280;68470;50.224;14.348;2023-07-09T06:39:15;99916.97;;;29.50;32.51
79067;BME280;68470;50.224;14.348;2023-07-09T06:41:41;99913.84;;;29.85;31.46
79067;BME280;68470;50.224;14.348;2023-07-09T06:44:08;99914.72;;;29.89;31.96
79067;BME280;68470;50.224;14.348;2023-07-09T06:46:35;99905.84;;;29.18;32.93
79067;BME280;68470;50.224;14.348;2023-07-09T06:49:02;99916.75;;;28.74;33.88
79067;BME280;68470;50.224;14.348;2023-07-09T06:51:29;99906.34;;;29.70;32.04
79067;BME280;68470;50.224;14.348;2023-07-09T06:53:55;99913.88;;;30.41;31.20
79067;BME280;68470;50.224;14.348;2023-07-09T06:56:21;99912.06;;;30.93;30.25
79067;BME280;68470;50.224;14.348;2023-07-09T06:58:47;99905.56;;;30.93;30.05
79067;BME280;68470;50.224;14.348;2023-07-09T07:01:13;99916.81;;;30.18;30.63
79067;BME280;68470;50.224;14.348;2023-07-09T07:03:39;99909.75;;;31.06;28.66
79067;BME280;68470;50.224;14.348;2023-07-09T07:06:05;99905.59;;;30.96;29.77
79067;BME280;68470;50.224;14.348;2023-07-09T07:08:32;99903.06;;;30.88;30.13
79067;BME280;68470;50.224;14.348;2023-07-09T07:11:01;99911.34;;;31.03;30.25
79067;BME280;68470;50.224;14.348;2023-07-09T07:13:39;99910.31;;;30.81;30.21
79067;BME280;68470;50.224;14.348;2023-07-09T07:16:06;99914.09;;;31.81;27.92
79067;BME280;68470;50.224;14.348;2023-07-09T07:18:33;99920.16;;;32.38;27.05
79067;BME280;68470;50.224;14.348;2023-07-09T07:20:59;99914.13;;;32.57;26.81
79067;BME280;68470;50.224;14.348;2023-07-09T07:23:25;99913.69;;;32.55;27.16
79067;BME280;68470;50.224;14.348;2023-07-09T07:25:51;99908.47;;;32.65;27.06
79067;BME280;68470;50.224;14.348;2023-07-09T07:28:17;99908.44;;;31.37;28.51
79067;BME280;68470;50.224;14.348;2023-07-09T07:30:43;99908.09;;;31.93;27.70
79067;BME280;68470;50.224;14.348;2023-07-09T07:33:10;99910.28;;;31.59;27.95
79067;BME280;68470;50.224;14.348;2023-07-09T07:35:36;99903.28;;;32.08;27.08
79067;BME280;68470;50.224;14.348;2023-07-09T07:38:03;99904.81;;;32.75;27.25
79067;BME280;68470;50.224;14.348;2023-07-09T07:40:28;99911.00;;;32.91;26.30
79067;BME280;68470;50.224;14.348;2023-07-09T07:42:54;99911.38;;;32.02;27.66
79067;BME280;68470;50.224;14.348;2023-07-09T07:45:21;99900.25;;;32.52;26.73
79067;BME280;68470;50.224;14.348;2023-07-09T07:47:47;99901.22;;;32.88;25.39
79067;BME280;68470;50.224;14.348;2023-07-09T07:50:13;99900.72;;;31.85;27.08
79067;BME280;68470;50.224;14.348;2023-07-09T07:52:39;99890.63;;;32.89;26.72
79067;BME280;68470;50.224;14.348;2023-07-09T07:55:13;99902.53;;;33.44;25.57
79067;BME280;68470;50.224;14.348;2023-07-09T07:57:39;99906.47;;;34.25;24.12
79067;BME280;68470;50.224;14.348;2023-07-09T08:00:06;99897.19;;;34.03;24.52
79067;BME280;68470;50.224;14.348;2023-07-09T08:02:32;99902.81;;;34.32;24.70
79067;BME280;68470;50.224;14.348;2023-07-09T08:04:57;99885.09;;;34.69;23.67
79067;BME280;68470;50.224;14.348;2023-07-09T08:07:23;99895.44;;;35.18;23.29
79067;BME280;68470;50.224;14.348;2023-07-09T08:09:49;99897.53;;;35.07;23.05
79067;BME280;68470;50.224;14.348;2023-07-09T08:12:15;99884.34;;;35.24;22.22
79067;BME280;68470;50.224;14.348;2023-07-09T08:14:42;99891.16;;;34.82;23.60
79067;BME280;68470;50.224;14.348;2023-07-09T08:17:08;99885.63;;;35.68;22.61
79067;BME280;68470;50.224;14.348;2023-07-09T08:19:49;99885.59;;;35.71;22.58
79067;BME280;68470;50.224;14.348;2023-07-09T08:22:16;99881.94;;;35.19;21.89
79067;BME280;68470;50.224;14.348;2023-07-09T08:24:42;99878.50;;;35.45;21.94
79067;BME280;68470;50.224;14.348;2023-07-09T08:27:09;99884.13;;;35.97;22.05
79067;BME280;68470;50.224;14.348;2023-07-09T08:29:35;99877.41;;;36.49;20.80
79067;BME280;68470;50.224;14.348;2023-07-09T08:32:02;99878.41;;;35.97;21.66
79067;BME280;68470;50.224;14.348;2023-07-09T08:34:28;99879.41;;;36.52;21.16
79067;BME280;68470;50.224;14.348;2023-07-09T08:36:54;99888.78;;;35.80;21.58
79067;BME280;68470;50.224;14.348;2023-07-09T08:39:25;99881.06;;;36.15;20.93
79067;BME280;68470;50.224;14.348;2023-07-09T08:42:17;99872.03;;;35.31;21.52
79067;BME280;68470;50.224;14.348;2023-07-09T08:47:56;99865.22;;;36.03;20.53
79067;BME280;68470;50.224;14.348;2023-07-09T08:53:04;99862.94;;;37.63;19.42
79067;BME280;68470;50.224;14.348;2023-07-09T08:55:31;99865.94;;;36.11;21.16
79067;BME280;68470;50.224;14.348;2023-07-09T08:58:17;99866.75;;;37.07;19.37
79067;BME280;68470;50.224;14.348;2023-07-09T09:00:57;99862.09;;;37.16;19.62
79067;BME280;68470;50.224;14.348;2023-07-09T09:03:41;99854.72;;;36.88;19.77
79067;BME280;68470;50.224;14.348;2023-07-09T09:06:22;99867.75;;;38.13;18.06
79067;BME280;68470;50.224;14.348;2023-07-09T09:11:57;99863.53;;;38.18;17.94
79067;BME280;68470;50.224;14.348;2023-07-09T09:16:53;99861.03;;;37.80;18.21
79067;BME280;68470;50.224;14.348;2023-07-09T09:19:28;99855.38;;;37.97;17.37
79067;BME280;68470;50.224;14.348;2023-07-09T09:21:58;99869.72;;;38.56;18.03
79067;BME280;68470;50.224;14.348;2023-07-09T09:24:37;99857.25;;;38.63;17.83
79067;BME280;68470;50.224;14.348;2023-07-09T09:27:03;99868.69;;;38.46;17.79
79067;BME280;68470;50.224;14.348;2023-07-09T09:29:30;99862.44;;;39.56;16.45
79067;BME280;68470;50.224;14.348;2023-07-09T09:31:58;99859.72;;;39.82;16.15
79067;BME280;68470;50.224;14.348;2023-07-09T09:34:28;99855.63;;;37.82;17.59
79067;BME280;68470;50.224;14.348;2023-07-09T09:36:56;99850.75;;;36.82;18.46
79067;BME280;68470;50.224;14.348;2023-07-09T09:39:24;99859.94;;;38.53;16.94
79067;BME280;68470;50.224;14.348;2023-07-09T09:41:53;99847.44;;;36.84;17.01
79067;BME280;68470;50.224;14.348;2023-07-09T09:44:29;99847.13;;;36.48;16.67
79067;BME280;68470;50.224;14.348;2023-07-09T09:46:56;99845.53;;;35.23;18.08
79067;BME280;68470;50.224;14.348;2023-07-09T09:49:23;99846.66;;;35.36;17.91
79067;BME280;68470;50.224;14.348;2023-07-09T09:51:49;99849.91;;;37.36;16.75
79067;BME280;68470;50.224;14.348;2023-07-09T09:54:18;99837.53;;;38.65;15.73
79067;BME280;68470;50.224;14.348;2023-07-09T09:56:45;99842.00;;;39.51;14.62
79067;BME280;68470;50.224;14.348;2023-07-09T09:59:32;99843.50;;;38.14;15.93
79067;BME280;68470;50.224;14.348;2023-07-09T10:02:16;99836.00;;;37.07;17.16
79067;BME280;68470;50.224;14.348;2023-07-09T10:04:44;99849.22;;;37.94;15.76
79067;BME280;68470;50.224;14.348;2023-07-09T10:07:32;99844.00;;;37.19;15.54
79067;BME280;68470;50.224;14.348;2023-07-09T10:10:02;99852.09;;;37.51;15.32
79067;BME280;68470;50.224;14.348;2023-07-09T10:12:49;99836.63;;;35.58;16.75
79067;BME280;68470;50.224;14.348;2023-07-09T10:19:03;99832.78;;;35.76;16.19
79067;BME280;68470;50.224;14.348;2023-07-09T10:21:05;99835.28;;;35.25;17.37
79067;BME280;68470;50.224;14.348;2023-07-09T10:23:37;99835.22;;;36.76;16.39
79067;BME280;68470;50.224;14.348;2023-07-09T10:26:10;99844.56;;;38.80;14.42
79067;BME280;68470;50.224;14.348;2023-07-09T10:28:59;99834.13;;;38.70;14.10
79067;BME280;68470;50.224;14.348;2023-07-09T10:31:36;99837.97;;;37.10;14.74
79067;BME280;68470;50.224;14.348;2023-07-09T10:37:13;99827.06;;;36.13;16.55
79067;BME280;68470;50.224;14.348;2023-07-09T10:39:47;99836.53;;;38.35;13.74
79067;BME280;68470;50.224;14.348;2023-07-09T10:42:42;99824.81;;;39.47;13.16
79067;BME280;68470;50.224;14.348;2023-07-09T10:45:12;99813.28;;;39.63;13.30
79067;BME280;68470;50.224;14.348;2023-07-09T10:47:43;99813.41;;;40.72;12.56
79067;BME280;68470;50.224;14.348;2023-07-09T10:50:15;99823.63;;;40.48;11.96
79067;BME280;68470;50.224;14.348;2023-07-09T10:52:47;99817.34;;;40.24;12.18
79067;BME280;68470;50.224;14.348;2023-07-09T10:55:21;99812.53;;;40.34;12.14
79067;BME280;68470;50.224;14.348;2023-07-09T10:58:15;99827.03;;;40.17;12.36
79067;BME280;68470;50.224;14.348;2023-07-09T11:00:44;99826.31;;;40.80;11.56
79067;BME280;68470;50.224;14.348;2023-07-09T11:03:16;99822.81;;;38.95;12.86
79067;BME280;68470;50.224;14.348;2023-07-09T11:05:44;99821.41;;;39.03;13.17
79067;BME280;68470;50.224;14.348;2023-07-09T11:08:17;99813.41;;;36.55;15.05
79067;BME280;68470;50.224;14.348;2023-07-09T11:10:56;99812.41;;;36.69;14.96
79067;BME280;68470;50.224;14.348;2023-07-09T11:13:39;99815.09;;;38.20;13.62
79067;BME280;68470;50.224;14.348;2023-07-09T11:16:12;99811.69;;;39.14;13.03
79067;BME280;68470;50.224;14.348;2023-07-09T11:18:40;99801.84;;;38.42;13.10
79067;BME280;68470;50.224;14.348;2023-07-09T11:21:13;99812.84;;;38.47;12.94
79067;BME280;68470;50.224;14.348;2023-07-09T11:23:44;99805.66;;;39.40;12.52
79067;BME280;68470;50.224;14.348;2023-07-09T11:26:28;99802.06;;;39.36;11.89
79067;BME280;68470;50.224;14.348;2023-07-09T11:31:35;99799.91;;;38.19;13.49
79067;BME280;68470;50.224;14.348;2023-07-09T11:34:09;99803.22;;;38.90;12.58
79067;BME280;68470;50.224;14.348;2023-07-09T11:36:46;99802.69;;;39.60;11.95
79067;BME280;68470;50.224;14.348;2023-07-09T11:42:26;99802.56;;;39.93;12.50
79067;BME280;68470;50.224;14.348;2023-07-09T11:45:06;99803.13;;;38.02;13.67
79067;BME280;68470;50.224;14.348;2023-07-09T11:47:38;99791.31;;;39.69;12.18
79067;BME280;68470;50.224;14.348;2023-07-09T11:50:22;99790.34;;;39.44;12.84
79067;BME280;68470;50.224;14.348;2023-07-09T11:52:56;99789.25;;;40.41;11.89
79067;BME280;68470;50.224;14.348;2023-07-09T11:58:02;99780.88;;;36.96;14.83
79067;BME280;68470;50.224;14.348;2023-07-09T12:00:36;99773.03;;;37.67;13.62
79067;BME280;68470;50.224;14.348;2023-07-09T12:03:03;99773.00;;;37.23;13.88
79067;BME280;68470;50.224;14.348;2023-07-09T12:05:30;99760.72;;;39.14;12.41
79067;BME280;68470;50.224;14.348;2023-07-09T12:07:56;99762.25;;;37.31;13.86
79067;BME280;68470;50.224;14.348;2023-07-09T12:10:28;99761.38;;;36.84;14.09
79067;BME280;68470;50.224;14.348;2023-07-09T12:12:59;99755.75;;;38.46;13.51
79067;BME280;68470;50.224;14.348;2023-07-09T12:15:27;99747.97;;;40.44;12.13
79067;BME280;68470;50.224;14.348;2023-07-09T12:18:10;99753.34;;;41.18;11.25
79067;BME280;68470;50.224;14.348;2023-07-09T12:20:37;99755.16;;;41.72;10.47
79067;BME280;68470;50.224;14.348;2023-07-09T12:23:20;99754.75;;;40.37;11.46
79067;BME280;68470;50.224;14.348;2023-07-09T12:25:49;99745.88;;;41.77;10.73
79067;BME280;68470;50.224;14.348;2023-07-09T12:28:16;99736.66;;;41.00;11.60
79067;BME280;68470;50.224;14.348;2023-07-09T12:30:50;99743.22;;;38.20;13.27
79067;BME280;68470;50.224;14.348;2023-07-09T12:33:17;99743.22;;;38.00;13.37
79067;BME280;68470;50.224;14.348;2023-07-09T12:35:48;99741.34;;;38.30;13.79
79067;BME280;68470;50.224;14.348;2023-07-09T12:38:23;99729.94;;;38.26;13.47
79067;BME280;68470;50.224;14.348;2023-07-09T12:40:50;99728.00;;;38.39;13.34
79067;BME280;68470;50.224;14.348;2023-07-09T12:43:25;99729.66;;;38.89;12.85
79067;BME280;68470;50.224;14.348;2023-07-09T12:45:52;99719.53;;;39.75;12.32
79067;BME280;68470;50.224;14.348;2023-07-09T12:48:21;99719.22;;;38.79;12.02
79067;BME280;68470;50.224;14.348;2023-07-09T12:50:50;99717.34;;;39.66;11.73
79067;BME280;68470;50.224;14.348;2023-07-09T12:53:18;99710.56;;;39.28;11.65
79067;BME280;68470;50.224;14.348;2023-07-09T12:55:47;99704.25;;;40.83;10.85
79067;BME280;68470;50.224;14.348;2023-07-09T12:58:20;99707.66;;;39.15;12.03
79067;BME280;68470;50.224;14.348;2023-07-09T13:00:49;99697.66;;;39.20;12.49
79067;BME280;68470;50.224;14.348;2023-07-09T13:03:55;99692.19;;;39.96;11.74
79067;BME280;68470;50.224;14.348;2023-07-09T13:06:35;99692.09;;;40.38;12.08
79067;BME280;68470;50.224;14.348;2023-07-09T13:09:15;99699.00;;;40.02;11.55
79067;BME280;68470;50.224;14.348;2023-07-09T13:11:44;99702.84;;;39.25;12.35
79067;BME280;68470;50.224;14.348;2023-07-09T13:14:23;99687.25;;;39.38;12.06
79067;BME280;68470;50.224;14.348;2023-07-09T13:16:49;99689.31;;;39.38;11.90
79067;BME280;68470;50.224;14.348;2023-07-09T13:19:16;99695.66;;;40.04;12.24
79067;BME280;68470;50.224;14.348;2023-07-09T13:21:43;99699.31;;;39.62;11.69
79067;BME280;68470;50.224;14.348;2023-07-09T13:24:35;99690.97;;;39.68;11.38
79067;BME280;68470;50.224;14.348;2023-07-09T13:27:01;99696.03;;;39.02;11.90